sensor_id;sensor_type;location;lat;lon;timestamp;pressure;altitude;pressure_sealevel;temperature;humidity
11542;BME280;5827;49.482;7.716;2022-12-24T00:00:34;98250.94;;;12.23;99.36
11542;BME280;5827;49.482;7.716;2022-12-24T00:02:36;98256.88;;;12.25;99.01
11542;BME280;5827;49.482;7.716;2022-12-24T00:04:38;98255.28;;;12.29;98.84
11542;BME280;5827;49.482;7.716;2022-12-24T00:06:39;98262.25;;;12.15;99.39
11542;BME280;5827;49.482;7.716;2022-12-24T00:08:41;98267.03;;;12.08;98.84
11542;BME280;5827;49.482;7.716;2022-12-24T00:10:44;98264.13;;;12.19;99.07
11542;BME280;5827;49.482;7.716;2022-12-24T00:12:49;98254.41;;;12.08;98.85
11542;BME280;5827;49.482;7.716;2022-12-24T00:14:50;98248.22;;;11.98;99.15
11542;BME280;5827;49.482;7.716;2022-12-24T00:16:52;98257.91;;;11.99;100.00
11542;BME280;5827;49.482;7.716;2022-12-24T00:18:53;98268.13;;;12.02;100.00
11542;BME280;5827;49.482;7.716;2022-12-24T00:20:55;98267.31;;;12.01;100.00
11542;BME280;5827;49.482;7.716;2022-12-24T00:22:56;98266.47;;;11.90;100.00
11542;BME280;5827;49.482;7.716;2022-12-24T00:24:58;98272.88;;;11.84;100.00
11542;BME280;5827;49.482;7.716;2022-12-24T00:27:00;98275.53;;;11.79;100.00
11542;BME280;5827;49.482;7.716;2022-12-24T00:29:02;98279.53;;;11.77;100.00
11542;BME280;5827;49.482;7.716;2022-12-24T00:31:09;98288.94;;;11.74;100.00
11542;BME280;5827;49.482;7.716;2022-12-24T00:33:11;98277.63;;;11.72;100.00
11542;BME280;5827;49.482;7.716;2022-12-24T00:35:12;98286.75;;;11.66;100.00
11542;BME280;5827;49.482;7.716;2022-12-24T00:37:14;98285.91;;;11.55;100.00
11542;BME280;5827;49.482;7.716;2022-12-24T00:39:16;98279.28;;;11.73;100.00
11542;BME280;5827;49.482;7.716;2022-12-24T00:41:17;98281.69;;;11.75;100.00
11542;BME280;5827;49.482;7.716;2022-12-24T00:43:26;98289.81;;;11.95;100.00
11542;BME280;5827;49.482;7.716;2022-12-24T00:45:28;98272.91;;;11.94;100.00
11542;BME280;5827;49.482;7.716;2022-12-24T00:47:29;98276.38;;;11.90;100.00
11542;BME280;5827;49.482;7.716;2022-12-24T00:49:31;98279.06;;;11.90;100.00
11542;BME280;5827;49.482;7.716;2022-12-24T00:51:33;98276.94;;;11.87;100.00
11542;BME280;5827;49.482;7.716;2022-12-24T00:53:36;98276.84;;;11.77;100.00
11542;BME280;5827;49.482;7.716;2022-12-24T00:55:37;98284.88;;;11.66;100.00
11542;BME280;5827;49.482;7.716;2022-12-24T00:57:39;98291.16;;;11.82;100.00
11542;BME280;5827;49.482;7.716;2022-12-24T00:59:41;98291.41;;;11.86;100.00
11542;BME280;5827;49.482;7.716;2022-12-24T01:01:43;98284.91;;;11.82;100.00
11542;BME280;5827;49.482;7.716;2022-12-24T01:03:45;98288.94;;;11.79;100.00
11542;BME280;5827;49.482;7.716;2022-12-24T01:05:46;98291.63;;;11.79;100.00
11542;BME280;5827;49.482;7.716;2022-12-24T01:07:47;98296.53;;;11.87;100.00
11542;BME280;5827;49.482;7.716;2022-12-24T01:09:49;98302.88;;;11.76;100.00
11542;BME280;5827;49.482;7.716;2022-12-24T01:11:51;98310.47;;;11.89;100.00
11542;BME280;5827;49.482;7.716;2022-12-24T01:13:54;98313.91;;;11.80;100.00
11542;BME280;5827;49.482;7.716;2022-12-24T01:15:57;98313.09;;;11.74;100.00
11542;BME280;5827;49.482;7.716;2022-12-24T01:17:58;98319.72;;;11.61;100.00
11542;BME280;5827;49.482;7.716;2022-12-24T01:20:00;98319.47;;;11.63;100.00
11542;BME280;5827;49.482;7.716;2022-12-24T01:22:02;98326.97;;;11.61;100.00
11542;BME280;5827;49.482;7.716;2022-12-24T01:24:04;98326.34;;;11.43;100.00
11542;BME280;5827;49.482;7.716;2022-12-24T01:26:06;98337.13;;;11.54;100.00
11542;BME280;5827;49.482;7.716;2022-12-24T01:28:07;98345.47;;;11.57;100.00
11542;BME280;5827;49.482;7.716;2022-12-24T01:30:12;98341.97;;;11.57;100.00
11542;BME280;5827;49.482;7.716;2022-12-24T01:32:16;98347.81;;;11.49;100.00
11542;BME280;5827;49.482;7.716;2022-12-24T01:34:17;98345.72;;;11.56;100.00
11542;BME280;5827;49.482;7.716;2022-12-24T01:36:19;98363.94;;;11.54;100.00
11542;BME280;5827;49.482;7.716;2022-12-24T01:38:20;98354.25;;;11.48;100.00
11542;BME280;5827;49.482;7.716;2022-12-24T01:40:24;98358.34;;;11.55;100.00
11542;BME280;5827;49.482;7.716;2022-12-24T01:42:46;98351.41;;;11.59;100.00
11542;BME280;5827;49.482;7.716;2022-12-24T01:45:43;98343.84;;;11.51;100.00
11542;BME280;5827;49.482;7.716;2022-12-24T01:47:46;98335.13;;;11.34;100.00
11542;BME280;5827;49.482;7.716;2022-12-24T01:49:50;98345.16;;;11.54;100.00
11542;BME280;5827;49.482;7.716;2022-12-24T01:51:57;98341.66;;;11.48;100.00
11542;BME280;5827;49.482;7.716;2022-12-24T01:54:02;98344.97;;;11.65;100.00
11542;BME280;5827;49.482;7.716;2022-12-24T01:56:06;98346.50;;;11.46;100.00
11542;BME280;5827;49.482;7.716;2022-12-24T01:58:10;98351.84;;;11.46;100.00
11542;BME280;5827;49.482;7.716;2022-12-24T02:00:15;98355.38;;;11.52;100.00
11542;BME280;5827;49.482;7.716;2022-12-24T02:02:17;98349.50;;;11.60;100.00
11542;BME280;5827;49.482;7.716;2022-12-24T02:04:27;98351.94;;;11.61;100.00
11542;BME280;5827;49.482;7.716;2022-12-24T02:06:30;98345.44;;;11.52;100.00
11542;BME280;5827;49.482;7.716;2022-12-24T02:08:32;98332.44;;;11.29;100.00
11542;BME280;5827;49.482;7.716;2022-12-24T02:10:40;98330.06;;;11.37;100.00
11542;BME280;5827;49.482;7.716;2022-12-24T02:12:42;98342.13;;;11.40;100.00
11542;BME280;5827;49.482;7.716;2022-12-24T02:14:45;98344.00;;;11.39;100.00
11542;BME280;5827;49.482;7.716;2022-12-24T02:16:53;98345.06;;;11.33;100.00
11542;BME280;5827;49.482;7.716;2022-12-24T02:19:04;98345.84;;;11.29;100.00
11542;BME280;5827;49.482;7.716;2022-12-24T02:21:37;98368.19;;;11.44;100.00
11542;BME280;5827;49.482;7.716;2022-12-24T02:24:09;98371.38;;;11.36;100.00
11542;BME280;5827;49.482;7.716;2022-12-24T02:26:26;98366.97;;;11.20;100.00
11542;BME280;5827;49.482;7.716;2022-12-24T02:28:44;98374.72;;;11.22;100.00
11542;BME280;5827;49.482;7.716;2022-12-24T02:30:52;98373.84;;;11.48;100.00
11542;BME280;5827;49.482;7.716;2022-12-24T02:33:02;98372.94;;;11.32;100.00
11542;BME280;5827;49.482;7.716;2022-12-24T02:35:09;98380.78;;;11.44;100.00
11542;BME280;5827;49.482;7.716;2022-12-24T02:37:16;98373.78;;;11.38;100.00
11542;BME280;5827;49.482;7.716;2022-12-24T02:39:24;98370.06;;;11.44;100.00
11542;BME280;5827;49.482;7.716;2022-12-24T02:41:32;98374.59;;;11.38;100.00
11542;BME280;5827;49.482;7.716;2022-12-24T02:43:58;98367.09;;;11.40;100.00
11542;BME280;5827;49.482;7.716;2022-12-24T02:46:05;98382.13;;;11.41;100.00
11542;BME280;5827;49.482;7.716;2022-12-24T02:48:08;98381.09;;;11.48;100.00
11542;BME280;5827;49.482;7.716;2022-12-24T02:50:13;98377.69;;;11.62;100.00
11542;BME280;5827;49.482;7.716;2022-12-24T02:52:32;98384.59;;;11.48;100.00
11542;BME280;5827;49.482;7.716;2022-12-24T02:54:33;98391.38;;;11.61;100.00
11542;BME280;5827;49.482;7.716;2022-12-24T02:56:44;98383.25;;;11.45;100.00
11542;BME280;5827;49.482;7.716;2022-12-24T02:58:59;98378.66;;;11.41;100.00
11542;BME280;5827;49.482;7.716;2022-12-24T03:01:13;98388.63;;;11.51;100.00
11542;BME280;5827;49.482;7.716;2022-12-24T03:03:30;98388.66;;;11.56;100.00
11542;BME280;5827;49.482;7.716;2022-12-24T03:05:41;98381.13;;;11.53;100.00
11542;BME280;5827;49.482;7.716;2022-12-24T03:07:51;98377.69;;;11.62;100.00
11542;BME280;5827;49.482;7.716;2022-12-24T03:10:05;98383.84;;;11.58;100.00
11542;BME280;5827;49.482;7.716;2022-12-24T03:12:11;98391.66;;;11.59;100.00
11542;BME280;5827;49.482;7.716;2022-12-24T03:14:16;98399.69;;;11.59;100.00
11542;BME280;5827;49.482;7.716;2022-12-24T03:16:22;98397.06;;;11.69;100.00
11542;BME280;5827;49.482;7.716;2022-12-24T03:18:25;98401.34;;;11.65;100.00
11542;BME280;5827;49.482;7.716;2022-12-24T03:20:34;98402.81;;;11.83;100.00
11542;BME280;5827;49.482;7.716;2022-12-24T03:22:37;98403.25;;;11.70;100.00
11542;BME280;5827;49.482;7.716;2022-12-24T03:24:39;98399.72;;;11.64;100.00
11542;BME280;5827;49.482;7.716;2022-12-24T03:26:41;98394.69;;;11.73;100.00
11542;BME280;5827;49.482;7.716;2022-12-24T03:28:45;98390.91;;;11.74;100.00
11542;BME280;5827;49.482;7.716;2022-12-24T03:30:48;98392.03;;;11.78;100.00
11542;BME280;5827;49.482;7.716;2022-12-24T03:32:52;98397.38;;;11.78;100.00
11542;BME280;5827;49.482;7.716;2022-12-24T03:34:54;98401.38;;;11.76;100.00
11542;BME280;5827;49.482;7.716;2022-12-24T03:36:55;98405.88;;;11.60;100.00
11542;BME280;5827;49.482;7.716;2022-12-24T03:38:57;98402.50;;;11.80;100.00
11542;BME280;5827;49.482;7.716;2022-12-24T03:40:59;98411.66;;;11.84;100.00
11542;BME280;5827;49.482;7.716;2022-12-24T03:43:00;98412.16;;;11.81;100.00
11542;BME280;5827;49.482;7.716;2022-12-24T03:45:02;98421.63;;;11.88;100.00
11542;BME280;5827;49.482;7.716;2022-12-24T03:47:04;98424.31;;;11.88;100.00
11542;BME280;5827;49.482;7.716;2022-12-24T03:49:07;98429.16;;;11.91;100.00
11542;BME280;5827;49.482;7.716;2022-12-24T03:51:15;98426.78;;;12.00;100.00
11542;BME280;5827;49.482;7.716;2022-12-24T03:53:17;98426.69;;;11.85;100.00
11542;BME280;5827;49.482;7.716;2022-12-24T03:55:19;98431.09;;;12.01;100.00
11542;BME280;5827;49.482;7.716;2022-12-24T03:57:20;98430.41;;;11.79;100.00
11542;BME280;5827;49.482;7.716;2022-12-24T03:59:22;98443.66;;;11.95;100.00
11542;BME280;5827;49.482;7.716;2022-12-24T04:01:23;98451.16;;;11.88;100.00
11542;BME280;5827;49.482;7.716;2022-12-24T04:03:25;98445.31;;;11.97;100.00
11542;BME280;5827;49.482;7.716;2022-12-24T04:05:28;98448.00;;;12.02;100.00
11542;BME280;5827;49.482;7.716;2022-12-24T04:07:30;98448.00;;;11.97;100.00
11542;BME280;5827;49.482;7.716;2022-12-24T04:09:32;98446.44;;;12.11;100.00
11542;BME280;5827;49.482;7.716;2022-12-24T04:11:34;98463.84;;;12.03;100.00
11542;BME280;5827;49.482;7.716;2022-12-24T04:13:35;98464.66;;;12.04;100.00
11542;BME280;5827;49.482;7.716;2022-12-24T04:15:37;98467.69;;;12.17;100.00
11542;BME280;5827;49.482;7.716;2022-12-24T04:17:38;98471.94;;;12.08;100.00
11542;BME280;5827;49.482;7.716;2022-12-24T04:19:40;98476.00;;;12.11;100.00
11542;BME280;5827;49.482;7.716;2022-12-24T04:21:43;98476.19;;;12.04;100.00
11542;BME280;5827;49.482;7.716;2022-12-24T04:23:44;98484.81;;;12.01;100.00
11542;BME280;5827;49.482;7.716;2022-12-24T04:25:47;98478.03;;;11.93;100.00
11542;BME280;5827;49.482;7.716;2022-12-24T04:27:49;98467.78;;;11.85;100.00
11542;BME280;5827;49.482;7.716;2022-12-24T04:29:50;98473.75;;;11.92;100.00
11542;BME280;5827;49.482;7.716;2022-12-24T04:31:52;98465.72;;;12.03;100.00
11542;BME280;5827;49.482;7.716;2022-12-24T04:33:53;98471.06;;;11.98;100.00
11542;BME280;5827;49.482;7.716;2022-12-24T04:35:56;98471.09;;;12.03;100.00
11542;BME280;5827;49.482;7.716;2022-12-24T04:37:59;98461.38;;;11.91;100.00
11542;BME280;5827;49.482;7.716;2022-12-24T04:40:00;98478.06;;;11.99;100.00
11542;BME280;5827;49.482;7.716;2022-12-24T04:42:02;98481.75;;;11.87;100.00
11542;BME280;5827;49.482;7.716;2022-12-24T04:44:03;98483.94;;;11.95;100.00
11542;BME280;5827;49.482;7.716;2022-12-24T04:46:06;98475.66;;;12.02;100.00
11542;BME280;5827;49.482;7.716;2022-12-24T04:48:08;98474.88;;;12.07;100.00
11542;BME280;5827;49.482;7.716;2022-12-24T04:50:10;98472.47;;;12.05;100.00
11542;BME280;5827;49.482;7.716;2022-12-24T04:52:11;98471.34;;;11.96;100.00
11542;BME280;5827;49.482;7.716;2022-12-24T04:54:14;98471.09;;;12.03;100.00
11542;BME280;5827;49.482;7.716;2022-12-24T04:56:18;98474.53;;;11.93;100.00
11542;BME280;5827;49.482;7.716;2022-12-24T04:58:20;98475.63;;;11.92;100.00
11542;BME280;5827;49.482;7.716;2022-12-24T05:00:22;98472.41;;;12.00;100.00
11542;BME280;5827;49.482;7.716;2022-12-24T05:02:23;98472.94;;;11.92;100.00
11542;BME280;5827;49.482;7.716;2022-12-24T05:04:24;98472.50;;;12.10;100.00
11542;BME280;5827;49.482;7.716;2022-12-24T05:06:29;98478.09;;;12.09;100.00
11542;BME280;5827;49.482;7.716;2022-12-24T05:08:31;98477.84;;;12.05;100.00
11542;BME280;5827;49.482;7.716;2022-12-24T05:10:35;98471.97;;;12.13;100.00
11542;BME280;5827;49.482;7.716;2022-12-24T05:12:36;98476.78;;;12.06;100.00
11542;BME280;5827;49.482;7.716;2022-12-24T05:14:38;98485.38;;;12.08;100.00
11542;BME280;5827;49.482;7.716;2022-12-24T05:16:39;98476.53;;;12.13;100.00
11542;BME280;5827;49.482;7.716;2022-12-24T05:18:41;98472.97;;;12.02;100.00
11542;BME280;5827;49.482;7.716;2022-12-24T05:20:43;98472.69;;;11.99;100.00
11542;BME280;5827;49.482;7.716;2022-12-24T05:22:45;98473.75;;;11.98;100.00
11542;BME280;5827;49.482;7.716;2022-12-24T05:25:04;98461.75;;;12.10;100.00
11542;BME280;5827;49.482;7.716;2022-12-24T05:27:25;98473.53;;;12.04;100.00
11542;BME280;5827;49.482;7.716;2022-12-24T05:29:27;98483.72;;;12.02;100.00
11542;BME280;5827;49.482;7.716;2022-12-24T05:31:30;98482.16;;;12.11;100.00
11542;BME280;5827;49.482;7.716;2022-12-24T05:33:32;98481.06;;;12.07;100.00
11542;BME280;5827;49.482;7.716;2022-12-24T05:35:34;98487.41;;;11.91;100.00
11542;BME280;5827;49.482;7.716;2022-12-24T05:37:35;98482.38;;;12.05;100.00
11542;BME280;5827;49.482;7.716;2022-12-24T05:39:37;98486.91;;;11.99;100.00
11542;BME280;5827;49.482;7.716;2022-12-24T05:41:38;98496.66;;;12.05;100.00
11542;BME280;5827;49.482;7.716;2022-12-24T05:43:41;98497.19;;;12.07;100.00
11542;BME280;5827;49.482;7.716;2022-12-24T05:45:43;98503.00;;;11.94;100.00
11542;BME280;5827;49.482;7.716;2022-12-24T05:47:44;98502.78;;;12.01;100.00
11542;BME280;5827;49.482;7.716;2022-12-24T05:49:46;98493.75;;;11.80;100.00
11542;BME280;5827;49.482;7.716;2022-12-24T05:51:48;98498.22;;;12.01;100.00
11542;BME280;5827;49.482;7.716;2022-12-24T05:53:50;98502.97;;;11.89;100.00
11542;BME280;5827;49.482;7.716;2022-12-24T05:55:51;98503.50;;;11.91;100.00
11542;BME280;5827;49.482;7.716;2022-12-24T05:57:53;98505.47;;;12.01;100.00
11542;BME280;5827;49.482;7.716;2022-12-24T05:59:56;98499.75;;;11.87;100.00
11542;BME280;5827;49.482;7.716;2022-12-24T06:01:57;98500.28;;;11.89;100.00
11542;BME280;5827;49.482;7.716;2022-12-24T06:03:59;98505.47;;;12.01;100.00
11542;BME280;5827;49.482;7.716;2022-12-24T06:06:02;98508.19;;;12.06;100.00
11542;BME280;5827;49.482;7.716;2022-12-24T06:08:04;98521.75;;;11.89;100.00
11542;BME280;5827;49.482;7.716;2022-12-24T06:10:07;98521.53;;;11.95;100.00
11542;BME280;5827;49.482;7.716;2022-12-24T06:12:09;98516.38;;;11.89;100.00
11542;BME280;5827;49.482;7.716;2022-12-24T06:14:10;98523.81;;;11.82;100.00
11542;BME280;5827;49.482;7.716;2022-12-24T06:16:17;98529.28;;;11.87;100.00
11542;BME280;5827;49.482;7.716;2022-12-24T06:18:19;98526.03;;;11.85;100.00
11542;BME280;5827;49.482;7.716;2022-12-24T06:20:21;98529.78;;;11.84;100.00
11542;BME280;5827;49.482;7.716;2022-12-24T06:22:22;98541.09;;;11.91;100.00
11542;BME280;5827;49.482;7.716;2022-12-24T06:24:24;98545.28;;;11.82;100.00
11542;BME280;5827;49.482;7.716;2022-12-24T06:26:25;98534.47;;;11.71;100.00
11542;BME280;5827;49.482;7.716;2022-12-24T06:28:27;98547.50;;;11.85;100.00
11542;BME280;5827;49.482;7.716;2022-12-24T06:30:28;98549.91;;;11.86;100.00
11542;BME280;5827;49.482;7.716;2022-12-24T06:32:31;98545.38;;;11.87;100.00
11542;BME280;5827;49.482;7.716;2022-12-24T06:34:33;98547.44;;;11.80;100.00
11542;BME280;5827;49.482;7.716;2022-12-24T06:36:35;98537.47;;;11.75;100.00
11542;BME280;5827;49.482;7.716;2022-12-24T06:38:36;98542.59;;;11.82;100.00
11542;BME280;5827;49.482;7.716;2022-12-24T06:40:38;98544.28;;;11.56;100.00
11542;BME280;5827;49.482;7.716;2022-12-24T06:42:40;98540.38;;;11.68;100.00
11542;BME280;5827;49.482;7.716;2022-12-24T06:44:42;98539.13;;;11.81;100.00
11542;BME280;5827;49.482;7.716;2022-12-24T06:46:43;98557.47;;;11.89;100.00
11542;BME280;5827;49.482;7.716;2022-12-24T06:48:46;98557.72;;;11.88;100.00
11542;BME280;5827;49.482;7.716;2022-12-24T06:50:48;98569.03;;;11.95;100.00
11542;BME280;5827;49.482;7.716;2022-12-24T06:52:50;98570.88;;;11.89;100.00
11542;BME280;5827;49.482;7.716;2022-12-24T06:54:51;98564.22;;;11.92;100.00
11542;BME280;5827;49.482;7.716;2022-12-24T06:56:53;98570.34;;;11.87;100.00
11542;BME280;5827;49.482;7.716;2022-12-24T06:58:54;98579.44;;;11.86;100.00
11542;BME280;5827;49.482;7.716;2022-12-24T07:00:56;98568.44;;;11.83;100.00
11542;BME280;5827;49.482;7.716;2022-12-24T07:02:57;98568.16;;;11.84;100.00
11542;BME280;5827;49.482;7.716;2022-12-24T07:05:00;98561.38;;;11.82;100.00
11542;BME280;5827;49.482;7.716;2022-12-24T07:07:02;98563.91;;;11.88;100.00
11542;BME280;5827;49.482;7.716;2022-12-24T07:09:03;98560.66;;;11.86;100.00
11542;BME280;5827;49.482;7.716;2022-12-24T07:11:05;98564.75;;;11.94;100.00
11542;BME280;5827;49.482;7.716;2022-12-24T07:13:06;98553.72;;;11.90;100.00
11542;BME280;5827;49.482;7.716;2022-12-24T07:15:09;98554.88;;;11.73;100.00
11542;BME280;5827;49.482;7.716;2022-12-24T07:17:11;98562.09;;;11.67;100.00
11542;BME280;5827;49.482;7.716;2022-12-24T07:19:13;98559.16;;;11.68;100.00
11542;BME280;5827;49.482;7.716;2022-12-24T07:21:16;98568.81;;;11.69;100.00
11542;BME280;5827;49.482;7.716;2022-12-24T07:23:18;98563.09;;;11.61;100.00
11542;BME280;5827;49.482;7.716;2022-12-24T07:25:19;98568.66;;;11.54;100.00
11542;BME280;5827;49.482;7.716;2022-12-24T07:27:21;98568.44;;;11.56;100.00
11542;BME280;5827;49.482;7.716;2022-12-24T07:29:22;98563.22;;;11.44;100.00
11542;BME280;5827;49.482;7.716;2022-12-24T07:31:24;98575.88;;;11.49;100.00
11542;BME280;5827;49.482;7.716;2022-12-24T07:33:25;98580.47;;;11.53;100.00
11542;BME280;5827;49.482;7.716;2022-12-24T07:35:27;98582.34;;;11.53;100.00
11542;BME280;5827;49.482;7.716;2022-12-24T07:37:30;98577.78;;;11.53;100.00
11542;BME280;5827;49.482;7.716;2022-12-24T07:39:31;98575.88;;;11.49;100.00
11542;BME280;5827;49.482;7.716;2022-12-24T07:41:33;98580.81;;;11.35;100.00
11542;BME280;5827;49.482;7.716;2022-12-24T07:43:35;98572.13;;;11.50;100.00
11542;BME280;5827;49.482;7.716;2022-12-24T07:45:38;98581.59;;;11.57;100.00
11542;BME280;5827;49.482;7.716;2022-12-24T07:47:39;98591.59;;;11.67;100.00
11542;BME280;5827;49.482;7.716;2022-12-24T07:49:41;98600.56;;;11.78;100.00
11542;BME280;5827;49.482;7.716;2022-12-24T07:51:42;98606.19;;;11.76;100.00
11542;BME280;5827;49.482;7.716;2022-12-24T07:53:45;98592.75;;;11.76;100.00
11542;BME280;5827;49.482;7.716;2022-12-24T07:55:47;98604.88;;;11.79;100.00
11542;BME280;5827;49.482;7.716;2022-12-24T07:57:49;98602.38;;;11.72;100.00
11542;BME280;5827;49.482;7.716;2022-12-24T07:59:50;98610.75;;;11.76;100.00
11542;BME280;5827;49.482;7.716;2022-12-24T08:01:52;98612.13;;;11.78;100.00
11542;BME280;5827;49.482;7.716;2022-12-24T08:03:53;98621.69;;;11.69;100.00
11542;BME280;5827;49.482;7.716;2022-12-24T08:05:55;98628.59;;;11.87;100.00
11542;BME280;5827;49.482;7.716;2022-12-24T08:07:57;98629.66;;;11.86;100.00
11542;BME280;5827;49.482;7.716;2022-12-24T08:10:00;98624.47;;;11.79;100.00
11542;BME280;5827;49.482;7.716;2022-12-24T08:12:02;98620.06;;;11.95;100.00
11542;BME280;5827;49.482;7.716;2022-12-24T08:14:04;98633.28;;;12.02;100.00
11542;BME280;5827;49.482;7.716;2022-12-24T08:16:06;98619.09;;;12.06;100.00
11542;BME280;5827;49.482;7.716;2022-12-24T08:18:07;98623.84;;;11.99;100.00
11542;BME280;5827;49.482;7.716;2022-12-24T08:20:10;98625.25;;;12.02;100.00
11542;BME280;5827;49.482;7.716;2022-12-24T08:22:12;98621.22;;;12.04;100.00
11542;BME280;5827;49.482;7.716;2022-12-24T08:24:13;98619.25;;;11.94;100.00
11542;BME280;5827;49.482;7.716;2022-12-24T08:26:16;98623.75;;;11.84;100.00
11542;BME280;5827;49.482;7.716;2022-12-24T08:28:19;98616.53;;;11.89;100.00
11542;BME280;5827;49.482;7.716;2022-12-24T08:30:21;98620.44;;;11.82;100.00
11542;BME280;5827;49.482;7.716;2022-12-24T08:32:22;98628.38;;;11.93;100.00
11542;BME280;5827;49.482;7.716;2022-12-24T08:34:24;98629.19;;;11.94;100.00
11542;BME280;5827;49.482;7.716;2022-12-24T08:36:25;98634.28;;;11.95;100.00
11542;BME280;5827;49.482;7.716;2022-12-24T08:38:27;98643.25;;;12.06;100.00
11542;BME280;5827;49.482;7.716;2022-12-24T08:40:28;98645.91;;;12.01;100.00
11542;BME280;5827;49.482;7.716;2022-12-24T08:42:31;98645.50;;;12.14;100.00
11542;BME280;5827;49.482;7.716;2022-12-24T08:44:32;98647.59;;;12.12;100.00
11542;BME280;5827;49.482;7.716;2022-12-24T08:46:34;98652.91;;;12.02;100.00
11542;BME280;5827;49.482;7.716;2022-12-24T08:48:36;98644.88;;;12.07;100.00
11542;BME280;5827;49.482;7.716;2022-12-24T08:50:38;98649.75;;;12.10;100.00
11542;BME280;5827;49.482;7.716;2022-12-24T08:52:40;98655.88;;;12.06;100.00
11542;BME280;5827;49.482;7.716;2022-12-24T08:54:41;98658.31;;;12.07;100.00
11542;BME280;5827;49.482;7.716;2022-12-24T08:56:43;98652.78;;;12.19;100.00
11542;BME280;5827;49.482;7.716;2022-12-24T08:58:46;98652.41;;;12.05;100.00
11542;BME280;5827;49.482;7.716;2022-12-24T09:00:49;98660.25;;;12.17;100.00
11542;BME280;5827;49.482;7.716;2022-12-24T09:02:50;98666.22;;;12.19;100.00
11542;BME280;5827;49.482;7.716;2022-12-24T09:04:51;98657.38;;;12.24;100.00
11542;BME280;5827;49.482;7.716;2022-12-24T09:06:53;98664.91;;;12.27;100.00
11542;BME280;5827;49.482;7.716;2022-12-24T09:08:55;98664.56;;;12.18;100.00
11542;BME280;5827;49.482;7.716;2022-12-24T09:11:01;98667.81;;;12.20;100.00
11542;BME280;5827;49.482;7.716;2022-12-24T09:13:03;98679.94;;;12.28;100.00
11542;BME280;5827;49.482;7.716;2022-12-24T09:15:07;98676.56;;;12.37;100.00
11542;BME280;5827;49.482;7.716;2022-12-24T09:17:09;98677.03;;;12.29;100.00
11542;BME280;5827;49.482;7.716;2022-12-24T09:19:10;98675.78;;;12.42;100.00
11542;BME280;5827;49.482;7.716;2022-12-24T09:21:13;98686.28;;;12.43;100.00
11542;BME280;5827;49.482;7.716;2022-12-24T09:23:15;98693.31;;;12.55;100.00
11542;BME280;5827;49.482;7.716;2022-12-24T09:25:16;98694.91;;;12.51;100.00
11542;BME280;5827;49.482;7.716;2022-12-24T09:27:18;98698.91;;;12.43;100.00
11542;BME280;5827;49.482;7.716;2022-12-24T09:29:19;98704.31;;;12.48;100.00
11542;BME280;5827;49.482;7.716;2022-12-24T09:31:22;98703.50;;;12.48;100.00
11542;BME280;5827;49.482;7.716;2022-12-24T09:33:24;98721.50;;;12.47;100.00
11542;BME280;5827;49.482;7.716;2022-12-24T09:35:26;98715.22;;;12.36;100.00
11542;BME280;5827;49.482;7.716;2022-12-24T09:37:32;98726.66;;;12.54;100.00
11542;BME280;5827;49.482;7.716;2022-12-24T09:39:34;98728.97;;;12.40;100.00
11542;BME280;5827;49.482;7.716;2022-12-24T09:41:41;98725.50;;;12.44;100.00
11542;BME280;5827;49.482;7.716;2022-12-24T09:43:46;98735.78;;;12.53;100.00
11542;BME280;5827;49.482;7.716;2022-12-24T09:46:00;98734.72;;;12.54;100.00
11542;BME280;5827;49.482;7.716;2022-12-24T09:48:12;98726.53;;;12.70;100.00
11542;BME280;5827;49.482;7.716;2022-12-24T09:50:25;98728.25;;;12.55;100.00
11542;BME280;5827;49.482;7.716;2022-12-24T09:52:33;98727.28;;;12.66;100.00
11542;BME280;5827;49.482;7.716;2022-12-24T09:54:37;98733.53;;;12.77;100.00
11542;BME280;5827;49.482;7.716;2022-12-24T09:56:44;98732.56;;;12.88;100.00
11542;BME280;5827;49.482;7.716;2022-12-24T09:58:48;98732.63;;;12.98;100.00
11542;BME280;5827;49.482;7.716;2022-12-24T10:00:52;98734.97;;;12.89;100.00
11542;BME280;5827;49.482;7.716;2022-12-24T10:02:54;98737.22;;;13.03;100.00
11542;BME280;5827;49.482;7.716;2022-12-24T10:05:00;98746.84;;;12.93;100.00
11542;BME280;5827;49.482;7.716;2022-12-24T10:07:09;98740.06;;;12.86;100.00
11542;BME280;5827;49.482;7.716;2022-12-24T10:09:23;98742.44;;;12.82;100.00
11542;BME280;5827;49.482;7.716;2022-12-24T10:11:37;98751.69;;;12.96;100.00
11542;BME280;5827;49.482;7.716;2022-12-24T10:13:57;98745.66;;;12.79;100.00
11542;BME280;5827;49.482;7.716;2022-12-24T10:16:11;98740.91;;;12.91;100.00
11542;BME280;5827;49.482;7.716;2022-12-24T10:18:34;98739.75;;;12.82;100.00
11542;BME280;5827;49.482;7.716;2022-12-24T10:20:44;98735.13;;;12.72;100.00
11542;BME280;5827;49.482;7.716;2022-12-24T10:22:52;98740.34;;;12.89;100.00
11542;BME280;5827;49.482;7.716;2022-12-24T10:25:02;98736.88;;;12.94;100.00
11542;BME280;5827;49.482;7.716;2022-12-24T10:27:08;98740.81;;;12.76;100.00
11542;BME280;5827;49.482;7.716;2022-12-24T10:29:16;98743.97;;;12.68;100.00
11542;BME280;5827;49.482;7.716;2022-12-24T10:31:22;98738.59;;;12.68;100.00
11542;BME280;5827;49.482;7.716;2022-12-24T10:33:30;98737.63;;;12.47;100.00
11542;BME280;5827;49.482;7.716;2022-12-24T10:35:46;98742.88;;;12.69;100.00
11542;BME280;5827;49.482;7.716;2022-12-24T10:37:50;98743.22;;;12.78;100.00
11542;BME280;5827;49.482;7.716;2022-12-24T10:39:53;98742.03;;;12.63;100.00
11542;BME280;5827;49.482;7.716;2022-12-24T10:41:56;98740.00;;;12.76;100.00
11542;BME280;5827;49.482;7.716;2022-12-24T10:44:00;98741.84;;;12.70;100.00
11542;BME280;5827;49.482;7.716;2022-12-24T10:46:04;98739.88;;;12.60;100.00
11542;BME280;5827;49.482;7.716;2022-12-24T10:48:12;98735.72;;;12.80;100.00
11542;BME280;5827;49.482;7.716;2022-12-24T10:52:26;98744.69;;;12.95;100.00
11542;BME280;5827;49.482;7.716;2022-12-24T10:54:29;98758.41;;;12.94;100.00
11542;BME280;5827;49.482;7.716;2022-12-24T10:56:39;98742.78;;;12.91;100.00
11542;BME280;5827;49.482;7.716;2022-12-24T10:58:43;98734.22;;;12.99;100.00